Time;durP1;ratioP1;P1;durP2;ratioP2;P2;SDS_P1;SDS_P2;PMS_P1;PMS_P2;Temp;Humidity;BMP_temperature;BMP_pressure;BME280_temperature;BME280_humidity;BME280_pressure;Samples;Min_cycle;Max_cycle;Signal;HPM_P1;HPM_P2
2021/08/15 00:00:31;;;;;;;;;;;15.40;99.90;;;;;;5098579;28;19928;-77
2021/08/15 00:02:58;;;;;;;;;;;15.40;99.90;;;;;;5098540;28;19928;-78
2021/08/15 00:05:24;;;;;;;;;;;15.40;99.90;;;;;;5098592;28;19924;-78
2021/08/15 00:07:53;;;;;;;;;;;15.40;99.90;;;;;;5098343;28;19920;-78
2021/08/15 00:10:20;;;;;;;;;;;15.40;99.90;;;;;;5098496;28;20019;-77
2021/08/15 00:12:47;;;;;;;;;;;15.40;99.90;;;;;;5097481;28;19931;-77
2021/08/15 00:15:14;;;;;;;;;;;15.40;99.90;;;;;;5098367;28;20261;-76
2021/08/15 00:17:41;;;;;;;;;;;15.40;99.90;;;;;;5098129;28;19920;-78
2021/08/15 00:20:08;;;;;;;;;;;15.40;99.90;;;;;;5098106;28;19920;-79
2021/08/15 00:22:36;;;;;;;;;;;15.40;99.90;;;;;;5098307;28;19930;-78
2021/08/15 00:25:05;;;;;;;;;;;15.40;99.90;;;;;;5098084;28;20364;-78
2021/08/15 00:27:32;;;;;;;;;;;15.40;99.90;;;;;;5098177;28;19920;-78
2021/08/15 00:29:58;;;;;;;;;;;15.40;99.90;;;;;;5098278;28;19920;-77
2021/08/15 00:32:25;;;;;;;;;;;15.40;99.90;;;;;;5098232;28;20370;-78
2021/08/15 00:34:52;;;;;;;;;;;15.40;99.90;;;;;;5097936;28;19920;-78
2021/08/15 00:37:19;;;;;;;;;;;15.40;99.90;;;;;;5097268;28;19924;-78
2021/08/15 00:39:46;;;;;;;;;;;15.30;99.90;;;;;;5097949;28;20251;-79
2021/08/15 00:42:14;;;;;;;;;;;15.40;99.90;;;;;;5097846;28;19931;-78
2021/08/15 00:44:41;;;;;;;;;;;15.40;99.90;;;;;;5098182;28;19920;-77
2021/08/15 00:47:08;;;;;;;;;;;15.40;99.90;;;;;;5097556;28;19922;-78
2021/08/15 00:49:34;;;;;;;;;;;15.40;99.90;;;;;;5097713;28;19931;-79
2021/08/15 00:52:01;;;;;;;;;;;15.40;99.90;;;;;;5097564;28;20464;-79
2021/08/15 00:54:28;;;;;;;;;;;15.40;99.90;;;;;;5097590;28;19930;-79
2021/08/15 00:56:55;;;;;;;;;;;15.40;99.90;;;;;;5097758;28;19920;-78
2021/08/15 00:59:23;;;;;;;;;;;15.40;99.90;;;;;;5097381;28;20007;-80
2021/08/15 01:01:51;;;;;;;;;;;15.40;99.90;;;;;;5097506;28;19920;-79
2021/08/15 01:04:18;;;;;;;;;;;15.40;99.90;;;;;;5097429;28;20263;-79
2021/08/15 01:06:44;;;;;;;;;;;15.40;99.90;;;;;;5097145;28;20036;-80
2021/08/15 01:09:11;;;;;;;;;;;15.40;99.90;;;;;;5097395;28;19932;-81
2021/08/15 01:11:38;;;;;;;;;;;15.40;99.90;;;;;;5097374;28;19920;-81
2021/08/15 01:14:06;;;;;;;;;;;15.40;99.90;;;;;;5097321;28;19924;-80
2021/08/15 01:16:34;;;;;;;;;;;15.40;99.90;;;;;;5097484;28;19978;-79
2021/08/15 01:19:01;;;;;;;;;;;15.40;99.90;;;;;;5097356;28;19920;-80
2021/08/15 01:21:27;;;;;;;;;;;15.40;99.90;;;;;;5097329;28;19930;-80
2021/08/15 01:23:54;;;;;;;;;;;15.40;99.90;;;;;;5097024;28;19928;-81
2021/08/15 01:26:21;;;;;;;;;;;15.40;99.90;;;;;;5097154;28;19920;-79
2021/08/15 01:28:50;;;;;;;;;;;15.40;99.90;;;;;;5097036;28;20236;-80
2021/08/15 01:31:16;;;;;;;;;;;15.30;99.90;;;;;;5096747;28;19930;-79
2021/08/15 01:33:43;;;;;;;;;;;15.30;99.90;;;;;;5096642;28;19924;-79
2021/08/15 01:36:11;;;;;;;;;;;15.30;99.90;;;;;;5096803;28;19920;-79
2021/08/15 01:38:38;;;;;;;;;;;15.40;99.90;;;;;;5096716;28;20263;-79
2021/08/15 01:41:05;;;;;;;;;;;15.30;99.90;;;;;;5096578;28;20249;-80
2021/08/15 01:43:34;;;;;;;;;;;15.30;99.90;;;;;;5096546;28;20257;-80
2021/08/15 01:46:02;;;;;;;;;;;15.40;99.90;;;;;;5096534;28;19920;-80
2021/08/15 01:48:29;;;;;;;;;;;15.40;99.90;;;;;;5095579;28;20355;-79
2021/08/15 01:50:56;;;;;;;;;;;15.40;99.90;;;;;;5096526;28;19934;-80
2021/08/15 01:53:23;;;;;;;;;;;15.40;99.90;;;;;;5096630;28;19920;-79
2021/08/15 01:55:49;;;;;;;;;;;15.40;99.90;;;;;;5096566;28;19930;-80
2021/08/15 01:58:16;;;;;;;;;;;15.40;99.90;;;;;;5096136;28;19924;-80
2021/08/15 02:00:44;;;;;;;;;;;15.40;99.90;;;;;;5096555;28;19920;-79
2021/08/15 02:03:12;;;;;;;;;;;15.40;99.90;;;;;;5096275;28;19935;-79
2021/08/15 02:05:39;;;;;;;;;;;15.40;99.90;;;;;;5096180;28;19920;-80
2021/08/15 02:08:06;;;;;;;;;;;15.50;99.90;;;;;;5096091;28;20021;-80
2021/08/15 02:10:33;;;;;;;;;;;15.50;99.90;;;;;;5096261;28;19930;-81
2021/08/15 02:13:00;;;;;;;;;;;15.50;99.90;;;;;;5095916;28;20332;-82
2021/08/15 02:15:27;;;;;;;;;;;15.50;99.90;;;;;;5096084;28;19946;-82
2021/08/15 02:17:54;;;;;;;;;;;15.50;99.90;;;;;;5096023;28;19920;-81
2021/08/15 02:20:22;;;;;;;;;;;15.60;99.90;;;;;;5095764;28;19920;-82
2021/08/15 02:22:49;;;;;;;;;;;15.60;99.90;;;;;;5095824;28;20347;-82
2021/08/15 02:25:18;;;;;;;;;;;15.60;99.90;;;;;;5095707;28;19924;-82
2021/08/15 02:27:45;;;;;;;;;;;15.60;99.90;;;;;;5095863;28;19920;-82
2021/08/15 02:30:13;;;;;;;;;;;15.60;99.90;;;;;;5096082;28;19920;-82
2021/08/15 02:32:39;;;;;;;;;;;15.60;99.90;;;;;;5095663;28;19927;-82
2021/08/15 02:35:06;;;;;;;;;;;15.60;99.90;;;;;;5095917;28;20029;-82
2021/08/15 02:37:35;;;;;;;;;;;15.60;99.90;;;;;;5095736;28;20356;-82
2021/08/15 02:40:02;;;;;;;;;;;15.60;99.90;;;;;;5095855;28;19919;-82
2021/08/15 02:42:28;;;;;;;;;;;15.60;99.90;;;;;;5095761;28;19919;-82
2021/08/15 02:44:55;;;;;;;;;;;15.60;99.90;;;;;;5095564;28;20025;-82
2021/08/15 02:47:22;;;;;;;;;;;15.60;99.90;;;;;;5095338;28;19926;-82
2021/08/15 02:49:49;;;;;;;;;;;15.60;99.90;;;;;;5095346;28;19924;-82
2021/08/15 02:52:16;;;;;;;;;;;15.60;99.90;;;;;;5095613;28;19920;-83
2021/08/15 02:54:44;;;;;;;;;;;15.60;99.90;;;;;;5095600;28;19930;-83
2021/08/15 02:57:11;;;;;;;;;;;15.70;99.90;;;;;;5095241;28;19930;-83
2021/08/15 02:59:40;;;;;;;;;;;15.70;99.90;;;;;;5094985;28;19965;-83
2021/08/15 03:02:07;;;;;;;;;;;15.70;99.90;;;;;;5095240;28;19989;-82
2021/08/15 03:04:34;;;;;;;;;;;15.60;99.90;;;;;;5095554;28;19920;-82
2021/08/15 03:07:01;;;;;;;;;;;15.70;99.90;;;;;;5095543;28;19931;-82
2021/08/15 03:09:27;;;;;;;;;;;15.70;99.90;;;;;;5095456;28;19934;-82
2021/08/15 03:11:56;;;;;;;;;;;15.70;99.90;;;;;;5095361;28;20348;-82
2021/08/15 03:14:22;;;;;;;;;;;15.60;99.90;;;;;;5095183;28;19920;-81
2021/08/15 03:16:49;;;;;;;;;;;15.70;99.90;;;;;;5095091;28;20260;-81
2021/08/15 03:19:16;;;;;;;;;;;15.70;99.90;;;;;;5095083;28;19920;-81
2021/08/15 03:21:43;;;;;;;;;;;15.70;99.90;;;;;;5095387;28;19931;-81
2021/08/15 03:24:10;;;;;;;;;;;15.70;99.90;;;;;;5095274;28;19920;-81
2021/08/15 03:26:38;;;;;;;;;;;15.70;99.90;;;;;;5094985;28;20358;-81
2021/08/15 03:29:07;;;;;;;;;;;15.70;99.90;;;;;;5094994;28;20017;-81
2021/08/15 03:31:33;;;;;;;;;;;15.70;99.90;;;;;;5094935;28;19931;-80
2021/08/15 03:34:00;;;;;;;;;;;15.70;99.90;;;;;;5095370;28;19920;-81
2021/08/15 03:36:27;;;;;;;;;;;15.60;99.90;;;;;;5094922;28;20271;-81
2021/08/15 03:38:54;;;;;;;;;;;15.70;99.90;;;;;;5095030;28;20385;-81
2021/08/15 03:41:21;;;;;;;;;;;15.70;99.90;;;;;;5095013;28;19920;-81
2021/08/15 03:43:48;;;;;;;;;;;15.70;99.90;;;;;;5095013;28;19920;-79
2021/08/15 03:46:16;;;;;;;;;;;15.70;99.90;;;;;;5095042;28;19946;-79
2021/08/15 03:48:43;;;;;;;;;;;15.60;99.90;;;;;;5094743;28;19931;-79
2021/08/15 03:51:09;;;;;;;;;;;15.60;99.90;;;;;;5094972;28;19920;-81
2021/08/15 03:53:36;;;;;;;;;;;15.60;99.90;;;;;;5094714;28;19920;-81
2021/08/15 03:56:03;;;;;;;;;;;15.60;99.90;;;;;;5094717;28;19920;-81
2021/08/15 03:58:30;;;;;;;;;;;15.60;99.90;;;;;;5094628;28;19919;-81
2021/08/15 04:00:57;;;;;;;;;;;15.60;99.90;;;;;;5095000;28;19920;-80
2021/08/15 04:03:25;;;;;;;;;;;15.60;99.90;;;;;;5094766;28;20324;-80
2021/08/15 04:05:55;;;;;;;;;;;15.60;99.90;;;;;;5094819;28;19927;-79
2021/08/15 04:08:22;;;;;;;;;;;15.60;99.90;;;;;;5094728;28;19920;-79
2021/08/15 04:10:49;;;;;;;;;;;15.60;99.90;;;;;;5094860;28;19942;-78
2021/08/15 04:13:15;;;;;;;;;;;15.60;99.90;;;;;;5097059;28;19930;-78
2021/08/15 04:15:42;;;;;;;;;;;15.60;99.90;;;;;;5098553;28;19920;-78
2021/08/15 04:18:09;;;;;;;;;;;15.60;99.90;;;;;;5098211;28;19935;-78
2021/08/15 04:20:37;;;;;;;;;;;15.50;99.90;;;;;;5098465;28;19926;-79
2021/08/15 04:23:04;;;;;;;;;;;15.50;99.90;;;;;;5098316;28;19930;-79
2021/08/15 04:25:31;;;;;;;;;;;15.40;99.90;;;;;;5098019;28;19942;-78
2021/08/15 04:27:58;;;;;;;;;;;15.40;99.90;;;;;;5098166;28;20366;-78
2021/08/15 04:30:25;;;;;;;;;;;15.40;99.90;;;;;;5097996;28;19930;-79
2021/08/15 04:32:52;;;;;;;;;;;15.40;99.90;;;;;;5097895;28;19919;-79
2021/08/15 04:35:18;;;;;;;;;;;15.50;99.90;;;;;;5098098;28;19920;-79
2021/08/15 04:37:47;;;;;;;;;;;15.40;99.90;;;;;;5097810;28;20454;-79
2021/08/15 04:40:13;;;;;;;;;;;15.40;99.90;;;;;;5097801;28;19931;-78
2021/08/15 04:42:40;;;;;;;;;;;15.50;99.90;;;;;;5097832;28;19924;-79
2021/08/15 04:45:07;;;;;;;;;;;15.50;99.90;;;;;;5097897;28;19931;-80
2021/08/15 04:47:34;;;;;;;;;;;15.50;99.90;;;;;;5097767;28;20352;-81
2021/08/15 04:50:01;;;;;;;;;;;15.50;99.90;;;;;;5097480;28;19920;-80
2021/08/15 04:52:28;;;;;;;;;;;15.50;99.90;;;;;;5097680;28;19920;-80
2021/08/15 04:54:56;;;;;;;;;;;15.60;99.90;;;;;;5097569;28;20247;-80
2021/08/15 04:57:23;;;;;;;;;;;15.60;99.90;;;;;;5097598;28;19920;-79
2021/08/15 04:59:50;;;;;;;;;;;15.60;99.90;;;;;;5097526;28;20160;-80
2021/08/15 05:02:16;;;;;;;;;;;15.60;99.90;;;;;;5097416;28;20358;-81
2021/08/15 05:04:43;;;;;;;;;;;15.60;99.90;;;;;;5097518;28;19920;-81
2021/08/15 05:07:10;;;;;;;;;;;15.60;99.90;;;;;;5097505;28;19931;-81
2021/08/15 05:09:37;;;;;;;;;;;15.60;99.90;;;;;;5097099;28;20363;-82
2021/08/15 05:12:05;;;;;;;;;;;15.60;99.90;;;;;;5097273;28;19920;-82
2021/08/15 05:14:32;;;;;;;;;;;15.60;99.90;;;;;;5097050;28;20348;-83
2021/08/15 05:16:59;;;;;;;;;;;15.60;99.90;;;;;;5097066;28;19920;-83
2021/08/15 05:19:26;;;;;;;;;;;15.60;99.90;;;;;;5097064;28;19985;-83
2021/08/15 05:21:53;;;;;;;;;;;15.60;99.90;;;;;;5096945;28;20351;-84
2021/08/15 05:24:20;;;;;;;;;;;15.60;99.90;;;;;;5096711;28;19924;-84
2021/08/15 05:26:46;;;;;;;;;;;15.60;99.90;;;;;;5097058;28;19920;-84
2021/08/15 05:29:15;;;;;;;;;;;15.60;99.90;;;;;;5096815;28;19957;-83
2021/08/15 05:31:41;;;;;;;;;;;15.60;99.90;;;;;;5096717;28;19930;-83
2021/08/15 05:34:08;;;;;;;;;;;15.60;99.90;;;;;;5096629;28;19919;-82
2021/08/15 05:36:35;;;;;;;;;;;15.60;99.90;;;;;;5096772;28;19931;-82
2021/08/15 05:39:02;;;;;;;;;;;15.60;99.90;;;;;;5096978;28;20366;-82
2021/08/15 05:41:31;;;;;;;;;;;15.60;99.90;;;;;;5096742;28;19920;-82
2021/08/15 05:43:57;;;;;;;;;;;15.60;99.90;;;;;;5096546;28;20267;-82
2021/08/15 05:46:26;;;;;;;;;;;15.60;99.90;;;;;;5096623;28;20333;-82
2021/08/15 05:48:53;;;;;;;;;;;15.70;99.90;;;;;;5096519;28;19931;-82
2021/08/15 05:51:19;;;;;;;;;;;15.70;99.90;;;;;;5096784;28;19930;-82
2021/08/15 05:53:46;;;;;;;;;;;15.70;99.90;;;;;;5096438;28;20252;-82
2021/08/15 05:56:13;;;;;;;;;;;15.70;99.90;;;;;;5096378;28;20342;-82
2021/08/15 05:58:40;;;;;;;;;;;15.70;99.90;;;;;;5096300;28;19928;-79
2021/08/15 06:01:07;;;;;;;;;;;15.80;99.90;;;;;;5096636;28;19942;-80
2021/08/15 06:03:35;;;;;;;;;;;15.80;99.90;;;;;;5096229;28;19920;-80
2021/08/15 06:06:02;;;;;;;;;;;15.70;99.90;;;;;;5096336;28;19920;-81
2021/08/15 06:08:29;;;;;;;;;;;15.80;99.90;;;;;;5096301;28;20247;-81
2021/08/15 06:10:56;;;;;;;;;;;15.80;99.90;;;;;;5096148;28;19930;-82
2021/08/15 06:13:23;;;;;;;;;;;15.90;99.90;;;;;;5096272;28;19920;-73
2021/08/15 06:15:49;;;;;;;;;;;15.90;99.90;;;;;;5096099;28;20271;-73
2021/08/15 06:18:18;;;;;;;;;;;15.80;99.90;;;;;;5095925;28;19930;-73
2021/08/15 06:20:46;;;;;;;;;;;15.90;99.90;;;;;;5095916;28;19928;-73
2021/08/15 06:23:13;;;;;;;;;;;15.80;99.90;;;;;;5095759;28;20279;-73
2021/08/15 06:25:40;;;;;;;;;;;15.90;99.90;;;;;;5095754;28;19920;-73
2021/08/15 06:28:07;;;;;;;;;;;15.90;99.90;;;;;;5095998;28;19931;-73
2021/08/15 06:30:34;;;;;;;;;;;15.90;99.90;;;;;;5095707;28;19966;-73
2021/08/15 06:33:02;;;;;;;;;;;15.90;99.90;;;;;;5095275;28;20347;-73
2021/08/15 06:35:30;;;;;;;;;;;16.00;99.90;;;;;;5094646;28;19920;-73
2021/08/15 06:38:03;;;;;;;;;;;15.90;99.90;;;;;;5095179;28;19927;-73
2021/08/15 06:40:31;;;;;;;;;;;16.00;99.90;;;;;;5093685;28;20014;-73
2021/08/15 06:43:08;;;;;;;;;;;15.90;99.90;;;;;;5095617;28;19920;-73
2021/08/15 06:45:36;;;;;;;;;;;16.00;99.90;;;;;;5095374;28;19920;-73
2021/08/15 06:48:04;;;;;;;;;;;16.00;99.90;;;;;;5095261;28;20335;-73
2021/08/15 06:50:32;;;;;;;;;;;16.00;99.90;;;;;;5095299;28;19924;-73
2021/08/15 06:53:02;;;;;;;;;;;16.10;99.90;;;;;;5095561;28;19920;-73
2021/08/15 06:55:30;;;;;;;;;;;16.20;99.90;;;;;;5095459;28;19920;-73
2021/08/15 06:57:57;;;;;;;;;;;16.20;99.90;;;;;;5095553;28;20023;-73
2021/08/15 07:00:25;;;;;;;;;;;16.20;99.90;;;;;;5095336;28;19920;-73
2021/08/15 07:02:54;;;;;;;;;;;16.20;99.90;;;;;;5095537;28;19928;-73
2021/08/15 07:05:21;;;;;;;;;;;16.10;99.90;;;;;;5095393;28;19920;-73
2021/08/15 07:07:47;;;;;;;;;;;16.10;99.90;;;;;;5093880;28;19920;-73
2021/08/15 07:10:16;;;;;;;;;;;16.20;99.90;;;;;;5094949;28;19938;-73
2021/08/15 07:12:42;;;;;;;;;;;16.20;99.90;;;;;;5095091;28;19927;-73
2021/08/15 07:15:10;;;;;;;;;;;16.20;99.90;;;;;;5095024;28;19924;-73
2021/08/15 07:17:39;;;;;;;;;;;16.20;99.90;;;;;;5095184;28;19920;-73
2021/08/15 07:20:08;;;;;;;;;;;16.20;99.90;;;;;;5095137;28;19931;-73
2021/08/15 07:22:38;;;;;;;;;;;16.30;99.90;;;;;;5095078;28;19931;-73
2021/08/15 07:25:07;;;;;;;;;;;16.30;99.90;;;;;;5094724;28;19927;-73
2021/08/15 07:27:36;;;;;;;;;;;16.40;99.90;;;;;;5094516;28;19920;-73
2021/08/15 07:30:05;;;;;;;;;;;16.50;99.90;;;;;;5095055;28;19919;-73
2021/08/15 07:32:31;;;;;;;;;;;16.70;99.90;;;;;;5094989;28;20363;-72
2021/08/15 07:35:00;;;;;;;;;;;17.10;99.90;;;;;;5094975;28;19920;-73
2021/08/15 07:37:28;;;;;;;;;;;17.00;99.90;;;;;;5095078;28;19920;-73
2021/08/15 07:39:56;;;;;;;;;;;17.00;99.90;;;;;;5095194;28;19954;-72
2021/08/15 07:42:23;;;;;;;;;;;17.00;99.90;;;;;;5095006;28;19920;-72
2021/08/15 07:44:54;;;;;;;;;;;17.00;99.90;;;;;;5095050;28;20226;-73
2021/08/15 07:47:21;;;;;;;;;;;16.90;99.90;;;;;;5096531;28;20014;-73
2021/08/15 07:49:49;;;;;;;;;;;17.10;99.90;;;;;;5099057;28;19920;-72
2021/08/15 07:52:17;;;;;;;;;;;17.30;99.90;;;;;;5098665;28;20336;-72
2021/08/15 07:54:47;;;;;;;;;;;17.40;99.90;;;;;;5098601;28;19919;-72
2021/08/15 07:57:20;;;;;;;;;;;17.40;99.90;;;;;;5098903;28;20246;-72
2021/08/15 07:59:50;;;;;;;;;;;17.40;99.90;;;;;;5098672;28;19931;-73
2021/08/15 08:02:19;;;;;;;;;;;17.40;99.90;;;;;;5098665;28;19920;-73
2021/08/15 08:04:51;;;;;;;;;;;17.40;99.90;;;;;;5098776;28;20033;-73
2021/08/15 08:07:22;;;;;;;;;;;17.30;99.90;;;;;;5098533;28;20010;-73
2021/08/15 08:09:49;;;;;;;;;;;17.20;99.90;;;;;;5098505;28;20391;-72
2021/08/15 08:12:17;;;;;;;;;;;17.30;99.90;;;;;;5098282;28;19926;-72
2021/08/15 08:14:46;;;;;;;;;;;17.30;99.90;;;;;;5098014;28;19920;-72
2021/08/15 08:17:14;;;;;;;;;;;17.30;99.90;;;;;;5097353;28;20279;-72
2021/08/15 08:19:57;;;;;;;;;;;17.30;99.90;;;;;;5097932;28;20316;-73
2021/08/15 08:22:26;;;;;;;;;;;17.40;99.90;;;;;;5098433;28;20019;-72
2021/08/15 08:24:56;;;;;;;;;;;17.40;99.90;;;;;;5098147;28;19928;-72
2021/08/15 08:27:33;;;;;;;;;;;17.40;99.90;;;;;;5098021;28;19931;-72
2021/08/15 08:30:01;;;;;;;;;;;17.50;99.90;;;;;;5098065;28;19920;-72
2021/08/15 08:32:29;;;;;;;;;;;17.50;99.90;;;;;;5097909;28;19920;-72
2021/08/15 08:34:59;;;;;;;;;;;17.60;99.90;;;;;;5098096;28;19924;-72
2021/08/15 08:37:27;;;;;;;;;;;17.70;99.90;;;;;;5098070;28;19920;-72
2021/08/15 08:39:59;;;;;;;;;;;17.70;99.90;;;;;;5097714;28;19931;-73
2021/08/15 08:42:27;;;;;;;;;;;17.70;99.90;;;;;;5097928;28;20317;-73
2021/08/15 08:45:00;;;;;;;;;;;17.70;99.90;;;;;;5097798;28;19951;-72
2021/08/15 08:47:29;;;;;;;;;;;17.70;99.90;;;;;;5097869;28;19927;-72
2021/08/15 08:49:56;;;;;;;;;;;17.80;99.90;;;;;;5097830;28;19924;-72
2021/08/15 08:52:36;;;;;;;;;;;17.90;99.90;;;;;;5097530;28;19930;-72
2021/08/15 08:55:05;;;;;;;;;;;17.90;99.90;;;;;;5097760;28;19920;-72
2021/08/15 08:57:33;;;;;;;;;;;18.10;99.90;;;;;;5096919;28;19939;-72
2021/08/15 09:00:00;;;;;;;;;;;18.10;99.90;;;;;;5097360;28;19919;-72
2021/08/15 09:02:28;;;;;;;;;;;18.10;99.90;;;;;;5097556;28;19928;-72
2021/08/15 09:04:57;;;;;;;;;;;18.00;99.90;;;;;;5097192;28;19920;-72
2021/08/15 09:07:26;;;;;;;;;;;18.00;99.90;;;;;;5097243;28;19931;-72
2021/08/15 09:09:55;;;;;;;;;;;17.90;99.90;;;;;;5096838;28;19920;-72
2021/08/15 09:12:33;;;;;;;;;;;17.80;99.90;;;;;;5097183;28;19919;-72
2021/08/15 09:15:11;;;;;;;;;;;17.90;99.90;;;;;;5097201;28;20332;-73
2021/08/15 09:17:39;;;;;;;;;;;18.00;99.90;;;;;;5097221;28;19920;-72
2021/08/15 09:20:08;;;;;;;;;;;18.00;99.90;;;;;;5096954;28;19930;-72
2021/08/15 09:22:37;;;;;;;;;;;18.10;99.90;;;;;;5096846;28;20336;-73
2021/08/15 09:25:12;;;;;;;;;;;18.00;99.90;;;;;;5096788;28;20320;-72
2021/08/15 09:27:44;;;;;;;;;;;18.10;99.90;;;;;;5097126;28;19930;-72
2021/08/15 09:30:14;;;;;;;;;;;18.00;99.90;;;;;;5096986;28;19930;-72
2021/08/15 09:32:49;;;;;;;;;;;17.90;99.90;;;;;;5097007;28;20271;-72
2021/08/15 09:35:20;;;;;;;;;;;17.90;99.90;;;;;;5096945;28;19930;-72
2021/08/15 09:37:59;;;;;;;;;;;17.80;99.90;;;;;;5096614;28;20007;-72
2021/08/15 09:40:28;;;;;;;;;;;17.70;99.90;;;;;;5096607;28;19939;-72
2021/08/15 09:42:56;;;;;;;;;;;17.70;99.90;;;;;;5096543;28;19924;-72
2021/08/15 09:45:50;;;;;;;;;;;17.70;99.90;;;;;;5096735;28;20264;-72
2021/08/15 09:48:28;;;;;;;;;;;17.70;99.90;;;;;;5077711;28;20232;-72
2021/08/15 09:51:14;;;;;;;;;;;17.60;99.90;;;;;;5096497;28;19920;-72
2021/08/15 09:53:47;;;;;;;;;;;17.60;99.90;;;;;;5096545;28;19920;-72
2021/08/15 09:56:13;;;;;;;;;;;17.60;99.90;;;;;;5096236;28;19931;-72
2021/08/15 09:58:42;;;;;;;;;;;17.50;99.90;;;;;;5095727;28;19920;-72
2021/08/15 10:01:10;;;;;;;;;;;17.50;99.90;;;;;;5095784;28;19927;-72
2021/08/15 10:03:41;;;;;;;;;;;17.50;99.90;;;;;;5096145;28;19919;-72
2021/08/15 10:06:11;;;;;;;;;;;17.60;99.90;;;;;;5096162;28;19926;-72
2021/08/15 10:08:39;;;;;;;;;;;17.70;99.90;;;;;;5096043;28;20264;-73
2021/08/15 10:11:11;;;;;;;;;;;17.90;99.90;;;;;;5094271;28;21278;-73
2021/08/15 10:13:38;;;;;;;;;;;18.10;99.90;;;;;;5090057;28;19928;-73
2021/08/15 10:16:07;;;;;;;;;;;18.20;99.90;;;;;;5095084;28;19934;-73
2021/08/15 10:18:37;;;;;;;;;;;18.30;99.90;;;;;;5096028;28;20291;-73
2021/08/15 10:21:13;;;;;;;;;;;18.50;99.90;;;;;;5095873;28;19950;-73
2021/08/15 10:23:42;;;;;;;;;;;18.60;99.90;;;;;;5096068;28;19935;-73
2021/08/15 10:26:40;;;;;;;;;;;18.60;99.90;;;;;;5095703;28;19934;-73
2021/08/15 10:29:24;;;;;;;;;;;18.60;99.90;;;;;;5034151;28;19936;-72
2021/08/15 10:32:09;;;;;;;;;;;18.50;99.90;;;;;;5032033;28;19925;-73
2021/08/15 10:34:55;;;;;;;;;;;18.40;99.90;;;;;;5033699;28;19925;-73
2021/08/15 10:37:48;;;;;;;;;;;18.40;99.90;;;;;;5033720;28;19925;-73
2021/08/15 10:40:35;;;;;;;;;;;18.30;99.90;;;;;;5033806;28;20016;-72
2021/08/15 10:43:03;;;;;;;;;;;18.20;99.90;;;;;;5033646;28;19958;-72
2021/08/15 10:45:31;;;;;;;;;;;18.10;99.90;;;;;;5033584;28;19925;-72
2021/08/15 10:48:17;;;;;;;;;;;18.00;99.90;;;;;;5033674;28;19982;-72
2021/08/15 10:50:48;;;;;;;;;;;18.00;99.90;;;;;;5033643;28;20350;-72
2021/08/15 10:53:33;;;;;;;;;;;17.90;99.90;;;;;;5033546;28;19936;-72
2021/08/15 10:56:03;;;;;;;;;;;17.90;99.90;;;;;;5033243;28;19925;-73
2021/08/15 10:58:39;;;;;;;;;;;17.90;99.90;;;;;;5033365;28;20453;-73
2021/08/15 11:01:08;;;;;;;;;;;17.90;99.90;;;;;;5033497;28;20027;-73
2021/08/15 11:03:59;;;;;;;;;;;18.00;99.90;;;;;;5072435;28;19924;-73
2021/08/15 11:06:52;;;;;;;;;;;18.00;99.90;;;;;;5095499;28;19934;-73
2021/08/15 11:09:20;;;;;;;;;;;17.80;99.90;;;;;;5095097;28;20413;-72
2021/08/15 11:12:08;;;;;;;;;;;17.70;99.90;;;;;;5095034;28;19935;-72
2021/08/15 11:14:39;;;;;;;;;;;17.60;99.90;;;;;;5095014;28;19924;-72
2021/08/15 11:17:15;;;;;;;;;;;17.60;99.90;;;;;;5094731;28;19924;-73
2021/08/15 11:19:43;;;;;;;;;;;17.70;99.90;;;;;;5095216;28;20034;-72
2021/08/15 11:22:16;;;;;;;;;;;17.90;99.90;;;;;;5097877;28;20328;-72
2021/08/15 11:24:51;;;;;;;;;;;18.10;99.90;;;;;;5099222;28;19928;-72
2021/08/15 11:27:34;;;;;;;;;;;18.20;99.90;;;;;;5099128;28;19925;-73
2021/08/15 11:30:08;;;;;;;;;;;18.30;99.90;;;;;;5096442;28;19924;-73
2021/08/15 11:32:36;;;;;;;;;;;18.30;99.90;;;;;;5099358;28;20015;-74
2021/08/15 11:35:05;;;;;;;;;;;18.20;99.90;;;;;;5098941;28;20435;-73
2021/08/15 11:37:34;;;;;;;;;;;18.20;99.90;;;;;;5099158;28;19934;-73
2021/08/15 11:40:12;;;;;;;;;;;18.10;99.90;;;;;;5098972;28;19924;-72
2021/08/15 11:42:40;;;;;;;;;;;18.10;99.90;;;;;;5098827;28;19924;-72
2021/08/15 11:45:10;;;;;;;;;;;18.10;99.90;;;;;;5098775;28;19924;-72
2021/08/15 11:47:39;;;;;;;;;;;18.00;99.90;;;;;;5098584;28;20351;-72
2021/08/15 11:50:16;;;;;;;;;;;18.10;99.90;;;;;;5098697;28;19935;-73
2021/08/15 11:52:44;;;;;;;;;;;18.20;99.90;;;;;;5098747;28;19939;-73
2021/08/15 11:55:25;;;;;;;;;;;18.20;99.90;;;;;;5098490;28;19924;-73
2021/08/15 11:57:57;;;;;;;;;;;18.20;99.90;;;;;;5098159;28;19924;-73
2021/08/15 12:00:29;;;;;;;;;;;18.30;99.90;;;;;;5095522;28;20332;-72
2021/08/15 12:03:04;;;;;;;;;;;18.40;99.90;;;;;;5098090;28;20438;-72
2021/08/15 12:05:32;;;;;;;;;;;18.30;99.90;;;;;;5098286;28;19924;-73
2021/08/15 12:08:04;;;;;;;;;;;18.30;99.90;;;;;;5098364;28;20002;-73
2021/08/15 12:10:36;;;;;;;;;;;18.20;99.90;;;;;;5098248;28;19924;-72
2021/08/15 12:13:15;;;;;;;;;;;18.30;99.90;;;;;;5098720;28;19939;-72
2021/08/15 12:15:45;;;;;;;;;;;18.20;99.90;;;;;;5098151;28;19931;-73
2021/08/15 12:18:28;;;;;;;;;;;18.20;99.90;;;;;;5098226;28;19924;-72
2021/08/15 12:20:55;;;;;;;;;;;18.10;99.90;;;;;;5098492;28;19924;-71
2021/08/15 12:23:23;;;;;;;;;;;18.00;99.90;;;;;;5098477;28;19935;-72
2021/08/15 12:26:07;;;;;;;;;;;17.90;99.90;;;;;;5098034;28;19928;-72
2021/08/15 12:28:34;;;;;;;;;;;17.80;99.90;;;;;;5097909;28;19938;-74
2021/08/15 12:31:15;;;;;;;;;;;17.60;99.90;;;;;;5097896;28;19924;-73
2021/08/15 12:33:44;;;;;;;;;;;17.40;99.90;;;;;;5094361;28;20255;-73
2021/08/15 12:36:17;;;;;;;;;;;17.30;99.90;;;;;;5097542;28;19935;-76
2021/08/15 12:38:45;;;;;;;;;;;17.20;99.90;;;;;;5097936;28;19935;-74
2021/08/15 12:41:27;;;;;;;;;;;17.20;99.90;;;;;;5097716;28;19931;-74
2021/08/15 12:44:08;;;;;;;;;;;17.20;99.90;;;;;;5097963;28;20236;-74
2021/08/15 12:46:38;;;;;;;;;;;17.30;99.90;;;;;;5097619;28;19924;-75
2021/08/15 12:49:23;;;;;;;;;;;17.50;99.90;;;;;;5097683;28;20019;-74
2021/08/15 12:51:52;;;;;;;;;;;17.60;99.90;;;;;;5097798;28;19924;-74
2021/08/15 12:54:23;;;;;;;;;;;17.60;99.90;;;;;;5097550;28;20237;-74
2021/08/15 12:56:51;;;;;;;;;;;17.70;99.90;;;;;;5096368;28;19928;-74
2021/08/15 12:59:19;;;;;;;;;;;17.80;99.90;;;;;;5096397;28;19935;-75
2021/08/15 13:01:47;;;;;;;;;;;17.90;99.90;;;;;;5095792;28;19924;-74
2021/08/15 13:04:15;;;;;;;;;;;18.00;99.90;;;;;;5095458;28;20015;-75
2021/08/15 13:06:44;;;;;;;;;;;18.10;99.90;;;;;;5095651;28;19924;-73
2021/08/15 13:09:12;;;;;;;;;;;18.30;99.90;;;;;;5095393;28;19924;-76
2021/08/15 13:11:40;;;;;;;;;;;18.50;99.90;;;;;;5095302;28;19935;-75
2021/08/15 13:14:11;;;;;;;;;;;18.60;99.90;;;;;;5095497;28;19935;-74
2021/08/15 13:16:40;;;;;;;;;;;18.70;99.90;;;;;;5097205;28;19924;-75
2021/08/15 13:19:08;;;;;;;;;;;18.60;99.90;;;;;;5097134;28;19924;-75
2021/08/15 13:21:37;;;;;;;;;;;18.50;99.90;;;;;;5097074;28;19924;-74
2021/08/15 13:24:21;;;;;;;;;;;18.30;99.90;;;;;;5097303;28;19924;-75
2021/08/15 13:26:52;;;;;;;;;;;18.00;99.90;;;;;;5097049;28;19998;-74
2021/08/15 13:29:19;;;;;;;;;;;17.70;99.90;;;;;;5096979;28;20383;-75
2021/08/15 13:31:49;;;;;;;;;;;17.50;99.90;;;;;;5097082;28;19924;-76
2021/08/15 13:34:17;;;;;;;;;;;17.40;99.90;;;;;;5097077;28;19924;-75
2021/08/15 13:36:46;;;;;;;;;;;17.30;99.90;;;;;;5097235;28;19947;-76
2021/08/15 13:39:23;;;;;;;;;;;17.20;99.90;;;;;;5096677;28;19934;-75
2021/08/15 13:41:54;;;;;;;;;;;17.20;99.90;;;;;;5096761;28;19935;-75
2021/08/15 13:44:22;;;;;;;;;;;17.20;99.90;;;;;;5096574;28;20350;-75
2021/08/15 13:46:50;;;;;;;;;;;17.20;99.90;;;;;;5096658;28;19929;-75
2021/08/15 13:49:18;;;;;;;;;;;17.10;99.90;;;;;;5096333;28;20356;-76
2021/08/15 13:51:46;;;;;;;;;;;17.10;99.90;;;;;;5096548;28;20332;-76
2021/08/15 13:54:14;;;;;;;;;;;17.10;99.90;;;;;;5096402;28;19934;-74
2021/08/15 13:56:45;;;;;;;;;;;17.20;99.90;;;;;;5096380;28;19928;-74
2021/08/15 13:59:13;;;;;;;;;;;17.30;99.90;;;;;;5096076;28;19924;-75
2021/08/15 14:01:41;;;;;;;;;;;17.30;99.90;;;;;;5096148;28;19924;-76
2021/08/15 14:04:09;;;;;;;;;;;17.40;99.90;;;;;;5096404;28;19951;-74
2021/08/15 14:06:38;;;;;;;;;;;17.50;99.90;;;;;;5096182;28;19931;-74
2021/08/15 14:09:06;;;;;;;;;;;17.60;99.90;;;;;;5096450;28;19994;-76
2021/08/15 14:11:36;;;;;;;;;;;17.70;99.90;;;;;;5095832;28;19924;-77
2021/08/15 14:14:04;;;;;;;;;;;17.70;99.90;;;;;;5096252;28;19924;-71
2021/08/15 14:16:34;;;;;;;;;;;17.70;99.90;;;;;;5096189;28;19934;-71
2021/08/15 14:19:05;;;;;;;;;;;17.80;99.90;;;;;;5092873;28;19979;-72
2021/08/15 14:21:33;;;;;;;;;;;17.90;99.90;;;;;;5084172;28;19935;-72
2021/08/15 14:24:01;;;;;;;;;;;17.90;99.90;;;;;;5095835;28;19934;-72
2021/08/15 14:26:29;;;;;;;;;;;18.00;99.90;;;;;;5095889;28;20335;-72
2021/08/15 14:28:57;;;;;;;;;;;17.90;99.90;;;;;;5096002;28;19950;-72